Time;durP1;ratioP1;P1;durP2;ratioP2;P2;SDS_P1;SDS_P2;PMS_P1;PMS_P2;Temp;Humidity;BMP_temperature;BMP_pressure;BME280_temperature;BME280_humidity;BME280_pressure;Samples;Min_cycle;Max_cycle;Signal;HPM_P1;HPM_P2
2022/07/26 00:01:26;;;;;;;17.48;2.83;;;18.00;99.90;;;;;;4978428;28;20402;-72
2022/07/26 00:03:52;;;;;;;13.98;2.55;;;18.00;99.90;;;;;;4979826;28;20583;-72
2022/07/26 00:06:18;;;;;;;19.98;2.95;;;18.00;99.90;;;;;;5035670;28;20035;-73
2022/07/26 00:08:44;;;;;;;14.38;2.88;;;18.00;99.90;;;;;;5061897;28;20060;-72
2022/07/26 00:11:10;;;;;;;13.73;2.40;;;18.00;99.90;;;;;;5024995;28;20175;-72
2022/07/26 00:13:35;;;;;;;15.98;3.13;;;18.00;99.90;;;;;;4977724;28;20050;-72
2022/07/26 00:16:02;;;;;;;14.88;2.78;;;18.00;99.90;;;;;;4979337;28;20085;-73
2022/07/26 00:18:28;;;;;;;11.68;2.28;;;18.00;99.90;;;;;;4980036;28;20089;-71
2022/07/26 00:20:54;;;;;;;13.85;2.78;;;18.00;99.90;;;;;;4980037;28;20097;-72
2022/07/26 00:23:19;;;;;;;15.48;2.80;;;18.00;99.90;;;;;;4980361;28;20042;-72
2022/07/26 00:25:45;;;;;;;13.63;3.00;;;18.10;99.90;;;;;;4979570;28;20582;-73
2022/07/26 00:28:11;;;;;;;13.57;2.65;;;18.00;99.90;;;;;;4978651;28;20059;-72
2022/07/26 00:30:37;;;;;;;10.75;2.03;;;18.00;99.90;;;;;;4980733;28;20050;-73
2022/07/26 00:33:04;;;;;;;9.80;2.10;;;18.00;99.90;;;;;;4978856;28;20043;-72
2022/07/26 00:35:29;;;;;;;9.57;2.35;;;18.00;99.90;;;;;;4976170;28;20089;-73
2022/07/26 00:37:55;;;;;;;11.90;2.30;;;18.00;99.90;;;;;;4979295;28;20537;-72
2022/07/26 00:40:21;;;;;;;9.35;2.00;;;18.00;99.90;;;;;;4979821;28;20046;-72
2022/07/26 00:42:47;;;;;;;7.95;2.05;;;18.00;99.90;;;;;;4977806;28;20064;-73
2022/07/26 00:45:13;;;;;;;13.45;2.15;;;17.90;99.90;;;;;;4979318;28;20101;-72
2022/07/26 00:47:39;;;;;;;12.73;2.70;;;18.00;99.90;;;;;;4980054;28;20121;-73
2022/07/26 00:50:11;;;;;;;11.43;2.60;;;17.90;99.90;;;;;;4979443;28;20125;-72
2022/07/26 00:52:37;;;;;;;9.20;2.33;;;18.00;99.90;;;;;;4980885;28;20301;-72
2022/07/26 00:55:06;;;;;;;11.63;2.20;;;18.00;99.90;;;;;;4979260;28;20495;-72
2022/07/26 00:57:34;;;;;;;12.80;2.25;;;18.00;99.90;;;;;;5008589;28;20549;-68
2022/07/26 01:00:04;;;;;;;10.23;2.30;;;18.00;99.90;;;;;;5011778;28;20092;-68
2022/07/26 01:02:29;;;;;;;13.82;2.60;;;18.00;99.90;;;;;;4988039;28;20669;-68
2022/07/26 01:04:55;;;;;;;12.20;2.70;;;17.90;99.90;;;;;;5074557;28;20125;-68
2022/07/26 01:07:22;;;;;;;10.15;2.05;;;17.90;99.90;;;;;;5015084;28;20407;-68
2022/07/26 01:09:48;;;;;;;9.90;2.20;;;17.90;99.90;;;;;;4962675;28;20509;-67
2022/07/26 01:12:13;;;;;;;8.93;2.03;;;17.90;99.90;;;;;;4978763;28;20368;-68
2022/07/26 01:14:43;;;;;;;8.15;2.15;;;17.90;99.90;;;;;;4979782;28;20046;-67
2022/07/26 01:17:09;;;;;;;12.38;2.70;;;17.90;99.90;;;;;;4977802;28;20572;-67
2022/07/26 01:19:35;;;;;;;11.00;2.17;;;17.90;99.90;;;;;;4994698;28;20058;-68
2022/07/26 01:22:00;;;;;;;8.82;2.45;;;17.90;99.90;;;;;;4979006;28;20050;-67
2022/07/26 01:24:26;;;;;;;8.38;2.20;;;17.90;99.90;;;;;;4961899;28;20445;-68
2022/07/26 01:26:54;;;;;;;8.77;2.00;;;17.90;99.90;;;;;;4998622;28;20042;-68
2022/07/26 01:29:20;;;;;;;7.35;2.13;;;17.80;99.90;;;;;;4981813;28;20045;-68
2022/07/26 01:31:46;;;;;;;6.95;1.80;;;17.90;99.90;;;;;;4997544;28;20047;-68
2022/07/26 01:34:12;;;;;;;6.55;2.00;;;17.80;99.90;;;;;;4978744;28;20506;-68
2022/07/26 01:36:38;;;;;;;7.30;2.33;;;17.90;99.90;;;;;;4965459;28;20086;-68
2022/07/26 01:39:03;;;;;;;8.00;2.08;;;17.90;99.90;;;;;;4982365;28;20061;-67
2022/07/26 01:41:29;;;;;;;8.30;2.13;;;17.90;99.90;;;;;;4981209;28;20042;-68
2022/07/26 01:43:55;;;;;;;8.65;2.58;;;17.80;99.90;;;;;;4980518;28;20054;-68
2022/07/26 01:46:20;;;;;;;7.60;1.98;;;17.80;99.90;;;;;;4983120;28;20371;-68
2022/07/26 01:48:46;;;;;;;6.68;2.00;;;17.80;99.90;;;;;;4965655;28;20187;-68
2022/07/26 01:51:12;;;;;;;7.10;2.20;;;17.80;99.90;;;;;;4980202;28;20050;-68
2022/07/26 01:53:37;;;;;;;4.85;1.90;;;17.80;99.90;;;;;;4979059;28;20042;-68
2022/07/26 01:56:04;;;;;;;6.50;1.98;;;17.70;99.90;;;;;;4985749;28;20526;-68
2022/07/26 01:58:29;;;;;;;6.28;2.35;;;17.70;99.90;;;;;;4996661;28;20380;-68
2022/07/26 02:00:55;;;;;;;7.55;2.42;;;17.70;99.90;;;;;;4981434;28;20046;-68
2022/07/26 02:03:21;;;;;;;8.80;2.33;;;17.70;99.90;;;;;;4981139;28;20050;-68
2022/07/26 02:05:46;;;;;;;10.30;2.63;;;17.70;99.90;;;;;;4981842;28;20042;-68
2022/07/26 02:08:12;;;;;;;6.88;2.35;;;17.70;99.90;;;;;;4996673;28;20166;-68
2022/07/26 02:13:23;;;;;;;6.47;2.05;;;17.70;99.90;;;;;;4985166;28;20051;-68
2022/07/26 02:15:49;;;;;;;6.55;2.25;;;17.80;99.90;;;;;;4981222;28;20408;-68
2022/07/26 02:18:15;;;;;;;11.30;2.38;;;17.80;99.90;;;;;;4982095;28;20137;-68
2022/07/26 02:20:40;;;;;;;9.02;2.63;;;17.80;99.90;;;;;;4996369;28;20062;-67
2022/07/26 02:23:07;;;;;;;16.33;3.33;;;17.80;99.90;;;;;;4982498;28;20046;-67
2022/07/26 02:25:33;;;;;;;11.05;2.47;;;17.70;99.90;;;;;;4980632;28;20034;-65
2022/07/26 02:28:00;;;;;;;7.53;1.88;;;17.70;99.90;;;;;;4979931;28;20461;-67
2022/07/26 02:30:26;;;;;;;8.23;1.42;;;17.60;99.90;;;;;;4980337;28;20046;-68
2022/07/26 02:32:52;;;;;;;5.43;1.83;;;17.50;99.90;;;;;;4980874;28;20137;-68
2022/07/26 02:35:18;;;;;;;11.48;1.60;;;17.40;99.90;;;;;;4995983;28;20053;-68
2022/07/26 02:37:44;;;;;;;5.88;1.65;;;17.30;99.90;;;;;;4982055;28;20104;-68
2022/07/26 02:40:10;;;;;;;10.02;2.00;;;17.30;99.90;;;;;;4982312;28;20046;-68
2022/07/26 02:42:39;;;;;;;8.15;1.90;;;17.20;99.90;;;;;;4964431;28;20054;-68
2022/07/26 02:45:05;;;;;;;8.70;1.88;;;17.20;99.90;;;;;;4981371;28;20399;-68
2022/07/26 02:47:31;;;;;;;12.15;1.83;;;17.10;99.90;;;;;;4978832;28;20046;-68
2022/07/26 02:49:58;;;;;;;7.60;1.83;;;17.10;99.90;;;;;;4980085;28;20058;-68
2022/07/26 02:52:23;;;;;;;10.07;2.00;;;17.10;99.90;;;;;;4962033;28;20475;-68
2022/07/26 02:54:49;;;;;;;12.65;2.10;;;17.00;99.90;;;;;;4979313;28;20046;-68
2022/07/26 02:57:15;;;;;;;9.40;1.98;;;17.00;99.90;;;;;;4979510;28;20087;-67
2022/07/26 02:59:40;;;;;;;9.10;2.30;;;17.00;99.90;;;;;;4980868;28;20050;-67
2022/07/26 03:02:06;;;;;;;13.75;2.20;;;17.00;99.90;;;;;;4980216;28;20046;-68
2022/07/26 03:04:32;;;;;;;14.25;2.60;;;16.90;99.90;;;;;;4962726;28;20154;-68
2022/07/26 03:06:58;;;;;;;10.82;2.13;;;16.90;99.90;;;;;;5013571;28;20050;-68
2022/07/26 03:09:23;;;;;;;18.30;2.50;;;16.90;99.90;;;;;;5012296;28;20135;-68
2022/07/26 03:11:49;;;;;;;10.50;1.83;;;16.90;99.90;;;;;;4996160;28;20072;-68
2022/07/26 03:14:15;;;;;;;15.00;2.33;;;16.90;99.90;;;;;;5012574;28;20042;-68
2022/07/26 03:16:41;;;;;;;11.68;2.28;;;16.90;99.90;;;;;;5016220;28;20054;-68
2022/07/26 03:19:07;;;;;;;10.75;2.10;;;16.90;99.90;;;;;;4982417;28;20072;-68
2022/07/26 03:21:32;;;;;;;9.95;2.15;;;16.90;99.90;;;;;;4995981;28;20043;-68
2022/07/26 03:23:58;;;;;;;9.35;2.00;;;16.90;99.90;;;;;;4962944;28;20069;-68
2022/07/26 03:26:24;;;;;;;9.32;1.90;;;16.90;99.90;;;;;;4979371;28;20074;-68
2022/07/26 03:28:49;;;;;;;12.32;1.95;;;16.90;99.90;;;;;;4979374;28;20050;-68
2022/07/26 03:31:15;;;;;;;9.25;1.60;;;16.90;99.90;;;;;;4980626;28;20042;-68
2022/07/26 03:33:41;;;;;;;9.07;1.63;;;16.90;99.90;;;;;;4982512;28;20050;-68
2022/07/26 03:36:09;;;;;;;7.88;1.45;;;16.90;99.90;;;;;;4968871;28;20045;-68
2022/07/26 03:38:36;;;;;;;8.00;1.35;;;16.80;99.90;;;;;;4984901;28;20038;-68
2022/07/26 03:41:02;;;;;;;10.32;1.52;;;16.70;99.90;;;;;;4968642;28;20046;-68
2022/07/26 03:43:27;;;;;;;10.30;1.38;;;16.70;99.90;;;;;;4984538;28;20511;-68
2022/07/26 03:45:53;;;;;;;7.95;1.23;;;16.70;99.90;;;;;;4985367;28;20042;-68
2022/07/26 03:48:19;;;;;;;8.32;1.38;;;16.70;99.90;;;;;;4999661;28;20049;-68
2022/07/26 03:50:44;;;;;;;10.07;1.75;;;16.60;99.90;;;;;;4969521;28;20046;-69
2022/07/26 03:53:10;;;;;;;8.93;1.50;;;16.60;99.90;;;;;;4984506;28;20046;-68
2022/07/26 03:58:21;;;;;;;9.23;1.33;;;16.60;99.90;;;;;;4984460;28;20054;-68
2022/07/26 04:00:46;;;;;;;9.18;1.42;;;16.60;99.90;;;;;;4968612;28;20054;-68
2022/07/26 04:03:12;;;;;;;7.75;1.30;;;16.60;99.90;;;;;;4984648;28;20043;-68
2022/07/26 04:05:38;;;;;;;9.40;1.38;;;16.50;99.90;;;;;;4984420;28;20093;-68
2022/07/26 04:08:04;;;;;;;9.45;1.30;;;16.50;99.90;;;;;;4984852;28;20042;-68
2022/07/26 04:10:30;;;;;;;9.45;1.20;;;16.50;99.90;;;;;;4985759;28;20046;-68
2022/07/26 04:12:55;;;;;;;7.55;1.02;;;16.50;99.90;;;;;;4968097;28;20423;-68
2022/07/26 04:15:21;;;;;;;5.03;1.05;;;16.50;99.90;;;;;;4983124;28;20038;-67
2022/07/26 04:17:47;;;;;;;8.10;1.00;;;16.50;99.90;;;;;;4985964;28;20503;-68
2022/07/26 04:20:14;;;;;;;7.13;1.20;;;16.50;99.90;;;;;;4983779;28;20078;-68
2022/07/26 04:22:40;;;;;;;8.85;1.05;;;16.50;99.90;;;;;;4984809;28;20046;-68
2022/07/26 04:25:07;;;;;;;8.52;0.98;;;16.40;99.90;;;;;;4986163;28;20053;-68
2022/07/26 04:27:33;;;;;;;7.75;1.35;;;16.40;99.90;;;;;;4984007;28;21151;-68
2022/07/26 04:29:59;;;;;;;3.45;1.00;;;16.30;99.90;;;;;;4984810;28;20046;-68
2022/07/26 04:32:25;;;;;;;9.05;1.20;;;16.40;99.90;;;;;;4985723;28;20039;-68
2022/07/26 04:34:50;;;;;;;11.07;1.10;;;16.40;99.90;;;;;;4968417;28;20084;-68
2022/07/26 04:37:16;;;;;;;7.97;0.95;;;16.40;99.90;;;;;;5001067;28;20517;-69
2022/07/26 04:39:42;;;;;;;6.07;1.30;;;16.50;99.90;;;;;;4985107;28;20507;-68
2022/07/26 04:42:08;;;;;;;6.05;1.13;;;16.40;99.90;;;;;;4985956;28;20061;-68
2022/07/26 04:44:33;;;;;;;5.72;1.30;;;16.50;99.90;;;;;;4984331;28;20046;-68
2022/07/26 04:46:59;;;;;;;6.55;1.35;;;16.50;99.90;;;;;;4968884;28;20134;-68
2022/07/26 04:49:25;;;;;;;5.47;1.52;;;16.50;99.90;;;;;;4966820;28;20064;-68
2022/07/26 04:51:50;;;;;;;9.82;1.23;;;16.50;99.90;;;;;;4983958;28;20518;-68
2022/07/26 04:54:19;;;;;;;8.48;1.10;;;16.50;99.90;;;;;;4984053;28;20038;-67
2022/07/26 04:56:48;;;;;;;6.30;1.17;;;16.50;99.90;;;;;;4985073;28;20080;-67
2022/07/26 04:59:16;;;;;;;5.20;0.95;;;16.50;99.90;;;;;;5014703;28;20045;-67
2022/07/26 05:01:42;;;;;;;7.22;1.20;;;16.60;99.90;;;;;;4986713;28;20047;-68
2022/07/26 05:04:08;;;;;;;8.80;1.00;;;16.50;99.90;;;;;;4989303;28;20048;-68
2022/07/26 05:06:34;;;;;;;6.40;0.85;;;16.50;99.90;;;;;;4988450;28;20160;-67
2022/07/26 05:09:00;;;;;;;5.97;1.20;;;16.50;99.90;;;;;;4987032;28;20368;-68
2022/07/26 05:11:26;;;;;;;8.60;1.20;;;16.60;99.90;;;;;;4987600;28;20046;-67
2022/07/26 05:13:51;;;;;;;5.05;1.00;;;16.50;99.90;;;;;;4987161;28;20069;-68
2022/07/26 05:16:17;;;;;;;6.78;1.00;;;16.40;99.90;;;;;;4986805;28;20057;-68
2022/07/26 05:18:43;;;;;;;5.15;1.10;;;16.40;99.90;;;;;;4988933;28;20077;-69
2022/07/26 05:21:09;;;;;;;9.20;1.05;;;16.30;99.90;;;;;;4987735;28;20093;-69
2022/07/26 05:23:34;;;;;;;5.13;0.93;;;16.20;99.90;;;;;;5002566;28;20038;-68
2022/07/26 05:26:00;;;;;;;5.63;1.05;;;16.10;99.90;;;;;;4986876;28;20050;-68
2022/07/26 05:28:26;;;;;;;6.93;0.88;;;16.10;99.90;;;;;;4986753;28;20042;-68
2022/07/26 05:30:52;;;;;;;7.80;0.82;;;16.10;99.90;;;;;;4987064;28;20103;-68
2022/07/26 05:33:17;;;;;;;5.65;1.25;;;16.10;99.90;;;;;;4986725;28;20042;-69
2022/07/26 05:35:43;;;;;;;9.07;1.17;;;16.10;99.90;;;;;;4987959;28;20127;-68
2022/07/26 05:38:09;;;;;;;7.25;1.23;;;16.10;99.90;;;;;;4987806;28;20548;-70
2022/07/26 05:40:35;;;;;;;6.72;1.17;;;16.10;99.90;;;;;;4986854;28;20082;-69
2022/07/26 05:43:01;;;;;;;5.35;1.05;;;16.20;99.90;;;;;;4970995;28;20080;-68
2022/07/26 05:45:27;;;;;;;8.10;1.10;;;16.30;99.90;;;;;;4986002;28;20046;-68
2022/07/26 05:47:53;;;;;;;3.97;0.80;;;16.30;99.90;;;;;;4986933;28;20049;-68
2022/07/26 05:50:19;;;;;;;6.00;0.95;;;16.40;99.90;;;;;;4970546;28;20103;-68
2022/07/26 05:52:45;;;;;;;13.10;1.20;;;16.30;99.90;;;;;;4987763;28;20087;-68
2022/07/26 05:55:11;;;;;;;6.13;1.30;;;16.40;99.90;;;;;;5003186;28;20043;-67
2022/07/26 05:57:40;;;;;;;6.05;1.08;;;16.40;99.90;;;;;;4987864;28;20088;-70
2022/07/26 06:00:08;;;;;;;6.15;1.00;;;16.40;99.90;;;;;;4970059;28;20047;-68
2022/07/26 06:02:34;;;;;;;5.68;0.80;;;16.40;99.90;;;;;;4986154;28;20041;-68
2022/07/26 06:04:59;;;;;;;7.20;1.25;;;16.40;99.90;;;;;;5002618;28;20046;-69
2022/07/26 06:07:25;;;;;;;6.95;0.93;;;16.40;99.90;;;;;;4993678;28;20376;-68
2022/07/26 06:09:51;;;;;;;10.85;1.10;;;16.40;99.90;;;;;;5005746;28;20036;-69
2022/07/26 06:12:16;;;;;;;5.65;0.80;;;16.40;99.90;;;;;;5087898;28;20042;-68
2022/07/26 06:14:42;;;;;;;6.35;1.00;;;16.40;99.90;;;;;;4970575;28;20569;-68
2022/07/26 06:17:08;;;;;;;5.85;1.20;;;16.50;99.90;;;;;;4986826;28;20057;-68
2022/07/26 06:19:34;;;;;;;7.68;1.00;;;16.50;99.90;;;;;;4987161;28;20235;-68
2022/07/26 06:21:59;;;;;;;7.75;1.48;;;16.60;99.90;;;;;;5003416;28;20061;-68
2022/07/26 06:24:25;;;;;;;8.32;1.10;;;16.70;99.90;;;;;;4986814;28;20517;-69
2022/07/26 06:26:52;;;;;;;7.45;0.95;;;16.70;99.90;;;;;;5002722;28;20046;-69
2022/07/26 06:29:18;;;;;;;7.85;1.20;;;16.80;99.90;;;;;;4987489;28;20510;-69
2022/07/26 06:31:43;;;;;;;9.43;1.00;;;16.80;99.90;;;;;;4987030;28;20050;-68
2022/07/26 06:34:09;;;;;;;9.38;1.25;;;16.80;99.90;;;;;;4986511;28;20368;-68
2022/07/26 06:36:35;;;;;;;7.07;1.10;;;16.70;99.90;;;;;;4985611;28;20485;-70
2022/07/26 06:39:00;;;;;;;8.68;0.85;;;16.70;99.90;;;;;;4986088;28;20506;-69
2022/07/26 06:41:26;;;;;;;11.15;1.25;;;16.80;99.90;;;;;;4986203;28;20757;-69
2022/07/26 06:43:52;;;;;;;4.32;0.80;;;16.70;99.90;;;;;;4986334;28;20043;-70
2022/07/26 06:46:21;;;;;;;9.23;1.23;;;16.70;99.90;;;;;;4987021;28;20048;-68
2022/07/26 06:48:47;;;;;;;9.30;1.10;;;16.70;99.90;;;;;;4987069;28;20056;-68
2022/07/26 06:51:13;;;;;;;7.32;1.00;;;16.60;99.90;;;;;;4987016;28;20080;-69
2022/07/26 06:53:39;;;;;;;6.45;1.15;;;16.50;99.90;;;;;;4985727;28;20073;-69
2022/07/26 06:56:05;;;;;;;3.92;0.80;;;16.50;99.90;;;;;;4985575;28;20491;-69
2022/07/26 06:58:30;;;;;;;6.00;1.13;;;16.40;99.90;;;;;;4969308;28;20056;-68
2022/07/26 07:00:56;;;;;;;5.45;0.82;;;16.40;99.90;;;;;;4983492;28;20107;-68
2022/07/26 07:03:22;;;;;;;13.05;1.20;;;16.40;99.90;;;;;;4984945;28;20507;-68
2022/07/26 07:05:48;;;;;;;6.00;1.10;;;16.40;99.90;;;;;;4986206;28;20042;-68
2022/07/26 07:08:14;;;;;;;6.57;1.00;;;16.50;99.90;;;;;;4969546;28;20376;-68
2022/07/26 07:10:40;;;;;;;6.63;1.00;;;16.60;99.90;;;;;;5000752;28;20046;-68
2022/07/26 07:13:05;;;;;;;6.68;1.00;;;16.70;99.90;;;;;;4985312;28;20052;-69
2022/07/26 07:15:31;;;;;;;4.88;0.80;;;16.80;99.90;;;;;;4985756;28;20313;-68
2022/07/26 07:17:57;;;;;;;6.60;1.48;;;16.90;99.90;;;;;;4985312;28;20121;-69
2022/07/26 07:20:23;;;;;;;7.80;1.00;;;16.90;99.90;;;;;;4985894;28;20046;-69
2022/07/26 07:22:48;;;;;;;10.30;1.15;;;17.10;99.90;;;;;;4984119;28;20046;-69
2022/07/26 07:25:14;;;;;;;6.60;1.00;;;17.20;99.90;;;;;;4985431;28;20046;-68
2022/07/26 07:27:40;;;;;;;7.00;0.80;;;17.30;99.90;;;;;;4985528;28;20084;-68
2022/07/26 07:30:07;;;;;;;8.00;1.20;;;17.40;99.90;;;;;;4984665;28;20081;-68
2022/07/26 07:32:33;;;;;;;6.43;1.17;;;17.60;99.90;;;;;;5001397;28;20051;-68
2022/07/26 07:34:58;;;;;;;10.15;1.13;;;17.70;99.90;;;;;;4986682;28;20042;-68
2022/07/26 07:37:24;;;;;;;7.97;1.48;;;17.80;99.90;;;;;;4983061;28;20074;-68
2022/07/26 07:39:50;;;;;;;7.32;1.33;;;17.90;99.90;;;;;;5001999;28;20051;-69
2022/07/26 07:42:15;;;;;;;7.50;1.00;;;18.10;99.90;;;;;;4984912;28;20091;-69
2022/07/26 07:44:41;;;;;;;12.35;1.38;;;18.10;99.90;;;;;;4984700;28;20086;-68
2022/07/26 07:47:07;;;;;;;10.13;1.80;;;18.10;99.90;;;;;;4986398;28;20129;-70
2022/07/26 07:49:33;;;;;;;7.03;1.17;;;17.80;99.90;;;;;;5000719;28;20050;-69
2022/07/26 07:52:00;;;;;;;12.68;1.98;;;17.50;99.90;;;;;;4985606;28;20038;-68
2022/07/26 07:54:25;;;;;;;8.95;1.50;;;17.30;99.90;;;;;;4984883;28;20038;-68
2022/07/26 07:56:51;;;;;;;9.27;1.70;;;17.10;99.90;;;;;;4985478;28;20456;-68
2022/07/26 07:59:18;;;;;;;10.57;1.50;;;17.00;99.90;;;;;;4984813;28;20043;-68
2022/07/26 08:01:43;;;;;;;11.55;1.60;;;17.00;99.90;;;;;;4969517;28;20046;-69
2022/07/26 08:04:09;;;;;;;8.85;1.40;;;17.00;99.90;;;;;;4986855;28;20126;-69
2022/07/26 08:06:35;;;;;;;14.32;1.95;;;17.10;99.90;;;;;;4985444;28;20039;-68
2022/07/26 08:09:01;;;;;;;9.02;1.38;;;17.20;99.90;;;;;;4985676;28;20054;-68
2022/07/26 08:11:26;;;;;;;9.65;1.30;;;17.40;99.90;;;;;;4968920;28;20038;-67
2022/07/26 08:13:52;;;;;;;9.63;1.67;;;17.60;99.90;;;;;;4985041;28;20046;-67
2022/07/26 08:16:18;;;;;;;8.50;1.40;;;17.80;99.90;;;;;;4968359;28;20054;-67
2022/07/26 08:18:44;;;;;;;8.68;1.02;;;18.10;99.90;;;;;;4986250;28;20125;-68
2022/07/26 08:21:09;;;;;;;7.97;1.73;;;18.10;99.90;;;;;;4984889;28;20035;-67
2022/07/26 08:23:35;;;;;;;11.20;1.45;;;18.10;99.90;;;;;;4983888;28;20502;-69
2022/07/26 08:26:01;;;;;;;11.82;1.88;;;17.90;99.90;;;;;;4984213;28;20050;-68
2022/07/26 08:28:27;;;;;;;10.60;1.65;;;17.70;99.90;;;;;;4968672;28;20449;-68
2022/07/26 08:30:53;;;;;;;10.35;1.58;;;17.80;99.90;;;;;;4986284;28;20392;-68
2022/07/26 08:33:19;;;;;;;12.23;1.92;;;17.80;99.90;;;;;;4985859;28;20050;-68
2022/07/26 08:35:44;;;;;;;9.68;2.17;;;17.80;99.90;;;;;;4988908;28;20486;-68
2022/07/26 08:38:10;;;;;;;10.07;1.52;;;17.90;99.90;;;;;;4986134;28;20125;-67
2022/07/26 08:40:36;;;;;;;7.53;1.40;;;18.10;99.90;;;;;;4988464;28;20038;-68
2022/07/26 08:43:02;;;;;;;7.80;1.20;;;18.30;99.90;;;;;;4987816;28;20061;-69
2022/07/26 08:45:30;;;;;;;6.35;1.35;;;18.30;99.90;;;;;;4987512;28;20543;-69
2022/07/26 08:47:57;;;;;;;10.52;2.35;;;18.30;99.90;;;;;;4970801;28;20042;-69
2022/07/26 08:50:23;;;;;;;9.82;1.48;;;18.30;99.90;;;;;;4988356;28;20045;-69
2022/07/26 08:52:50;;;;;;;9.65;1.83;;;18.20;99.90;;;;;;5024809;28;20044;-68
2022/07/26 08:55:20;;;;;;;10.23;1.70;;;18.00;99.90;;;;;;4986240;28;20038;-68
2022/07/26 08:57:46;;;;;;;16.50;2.40;;;17.90;99.90;;;;;;4987629;28;20126;-69
2022/07/26 09:00:25;;;;;;;7.93;1.92;;;17.70;99.90;;;;;;4988449;28;20042;-69
2022/07/26 09:02:52;;;;;;;11.18;2.38;;;17.50;99.90;;;;;;4970949;28;20046;-68
2022/07/26 09:05:39;;;;;;;10.45;1.92;;;17.40;99.90;;;;;;4988464;28;20038;-69
2022/07/26 09:08:26;;;;;;;9.52;2.15;;;17.30;99.90;;;;;;4971146;28;20074;-70
2022/07/26 09:10:51;;;;;;;14.35;2.75;;;17.30;99.90;;;;;;4988743;28;20051;-69
2022/07/26 09:13:22;;;;;;;16.08;2.45;;;17.40;99.90;;;;;;4986997;28;20228;-69
2022/07/26 09:15:48;;;;;;;15.47;2.20;;;17.50;99.90;;;;;;4988597;28;20054;-70
2022/07/26 09:18:27;;;;;;;17.38;2.47;;;17.60;99.90;;;;;;4970552;28;20054;-69
2022/07/26 09:20:53;;;;;;;16.50;2.58;;;17.70;99.90;;;;;;5003533;28;20694;-70
2022/07/26 09:23:19;;;;;;;15.73;2.47;;;17.70;99.90;;;;;;5002934;28;20103;-70
2022/07/26 09:25:45;;;;;;;14.40;2.70;;;17.80;99.90;;;;;;4971351;28;20046;-69
2022/07/26 09:28:28;;;;;;;15.85;2.55;;;17.80;99.90;;;;;;4986988;28;20088;-68
2022/07/26 09:31:00;;;;;;;18.92;2.67;;;17.80;99.90;;;;;;4986822;28;20050;-69
2022/07/26 09:33:46;;;;;;;19.75;2.35;;;17.70;99.90;;;;;;4987620;28;20125;-69
2022/07/26 09:36:12;;;;;;;14.43;2.67;;;17.80;99.90;;;;;;4987592;28;20384;-70
2022/07/26 09:38:43;;;;;;;16.85;2.45;;;17.70;99.90;;;;;;4987670;28;20042;-69
2022/07/26 09:41:19;;;;;;;12.25;2.33;;;17.80;99.90;;;;;;4971227;28;20051;-69
2022/07/26 09:43:45;;;;;;;18.73;2.42;;;17.90;99.90;;;;;;4987591;28;20507;-69
2022/07/26 09:46:14;;;;;;;23.15;4.75;;;18.20;99.90;;;;;;4987110;28;20441;-68
2022/07/26 09:48:41;;;;;;;11.82;1.85;;;18.50;99.90;;;;;;4986665;28;20058;-69
2022/07/26 09:51:07;;;;;;;17.13;2.17;;;18.70;99.90;;;;;;4971079;28;20054;-70
2022/07/26 09:53:53;;;;;;;13.77;1.90;;;18.70;99.90;;;;;;4986861;28;20518;-69
2022/07/26 09:56:19;;;;;;;15.57;2.20;;;18.80;99.90;;;;;;4986243;28;20826;-68
2022/07/26 09:58:45;;;;;;;9.60;1.42;;;18.80;99.90;;;;;;4986539;28;20050;-68
2022/07/26 10:01:14;;;;;;;16.35;1.85;;;18.90;99.90;;;;;;4971071;28;20046;-68
2022/07/26 10:03:40;;;;;;;9.80;1.88;;;18.90;99.90;;;;;;4987276;28;20030;-69
2022/07/26 10:06:05;;;;;;;10.70;1.85;;;18.90;99.90;;;;;;4987985;28;20099;-68
2022/07/26 10:08:31;;;;;;;10.35;2.05;;;18.90;99.90;;;;;;5018976;28;20038;-68
2022/07/26 10:11:05;;;;;;;10.02;1.80;;;19.00;99.90;;;;;;5019184;28;20046;-68
2022/07/26 10:13:31;;;;;;;9.57;1.73;;;19.20;99.90;;;;;;4985553;28;20039;-68
2022/07/26 10:15:56;;;;;;;14.25;2.00;;;19.50;99.90;;;;;;5036322;28;20444;-69
2022/07/26 10:18:37;;;;;;;13.65;2.53;;;19.50;99.90;;;;;;5064781;28;20048;-67
2022/07/26 10:21:15;;;;;;;10.57;1.92;;;20.00;99.90;;;;;;5002755;28;20096;-68
2022/07/26 10:23:44;;;;;;;10.88;1.58;;;20.50;99.90;;;;;;4986392;28;20042;-69
2022/07/26 10:26:30;;;;;;;11.88;1.55;;;20.80;99.90;;;;;;5002512;28;20403;-69
2022/07/26 10:29:15;;;;;;;12.77;2.08;;;21.00;99.90;;;;;;5002882;28;20046;-67
2022/07/26 10:32:07;;;;;;;9.55;1.50;;;21.40;99.90;;;;;;4967458;28;20047;-68
2022/07/26 10:34:35;;;;;;;9.70;1.60;;;21.60;99.90;;;;;;4989225;28;20050;-69
2022/07/26 10:37:05;;;;;;;11.85;1.70;;;21.60;99.90;;;;;;4986445;28;20147;-69
2022/07/26 10:39:31;;;;;;;12.32;1.70;;;21.70;99.90;;;;;;4985221;28;20050;-68
2022/07/26 10:42:08;;;;;;;8.20;1.80;;;21.90;99.90;;;;;;4986238;28;20127;-69
2022/07/26 10:44:45;;;;;;;7.50;1.60;;;21.90;99.90;;;;;;4985425;28;20042;-69
2022/07/26 10:47:17;;;;;;;8.65;1.52;;;22.00;99.90;;;;;;4985514;28;20422;-68
2022/07/26 10:49:53;;;;;;;8.48;1.35;;;22.30;99.90;;;;;;5001851;28;20061;-68
2022/07/26 10:52:27;;;;;;;6.43;1.23;;;22.10;99.90;;;;;;5002834;28;20058;-69
2022/07/26 10:54:59;;;;;;;8.65;2.53;;;21.70;99.90;;;;;;5001380;28;20070;-69
2022/07/26 10:57:30;;;;;;;8.60;1.48;;;21.40;99.90;;;;;;4985757;28;20371;-69
2022/07/26 10:59:57;;;;;;;8.00;1.30;;;21.40;99.90;;;;;;4987179;28;20077;-68
2022/07/26 11:02:31;;;;;;;5.57;1.23;;;21.70;99.90;;;;;;4977962;28;20125;-68
2022/07/26 11:05:11;;;;;;;6.50;1.45;;;22.00;99.90;;;;;;4982518;28;20057;-66
2022/07/26 11:07:49;;;;;;;6.82;1.02;;;22.00;99.90;;;;;;5010708;28;20049;-69
2022/07/26 11:10:16;;;;;;;6.30;1.33;;;21.80;99.90;;;;;;4998402;28;20466;-69
2022/07/26 11:12:41;;;;;;;5.80;1.20;;;21.80;99.90;;;;;;4983125;28;20467;-65
2022/07/26 11:15:16;;;;;;;5.95;1.15;;;21.80;99.90;;;;;;4965828;28;20483;-70
2022/07/26 11:17:42;;;;;;;12.82;1.40;;;22.00;99.90;;;;;;4981962;28;20069;-69
2022/07/26 11:20:09;;;;;;;6.28;1.35;;;22.30;99.90;;;;;;5040202;28;20052;-69
2022/07/26 11:22:35;;;;;;;6.85;1.33;;;22.30;99.90;;;;;;4994917;28;20050;-68
2022/07/26 11:25:03;;;;;;;7.63;1.45;;;22.00;99.90;;;;;;4965862;28;20078;-71
2022/07/26 11:27:30;;;;;;;5.53;1.02;;;21.60;99.90;;;;;;4996561;28;20038;-69
2022/07/26 11:30:04;;;;;;;8.00;1.67;;;21.50;99.90;;;;;;4965901;28;20062;-70
2022/07/26 11:32:30;;;;;;;7.68;1.40;;;21.60;99.90;;;;;;4981977;28;20050;-69
2022/07/26 11:35:01;;;;;;;7.07;1.20;;;21.60;99.90;;;;;;4966135;28;20050;-69
2022/07/26 11:37:27;;;;;;;;;;;21.60;99.90;;;;;;4996605;28;20460;-70
2022/07/26 11:39:53;;;;;;;9.73;1.42;;;21.50;99.90;;;;;;4982562;28;20016;-68
2022/07/26 11:42:20;;;;;;;4.32;1.02;;;21.40;99.90;;;;;;4983139;28;20049;-69
2022/07/26 11:44:48;;;;;;;6.15;1.33;;;21.30;99.90;;;;;;4982764;28;20084;-69
2022/07/26 11:47:18;;;;;;;12.70;1.88;;;21.20;99.90;;;;;;4981575;28;20078;-69
2022/07/26 11:49:45;;;;;;;7.72;1.20;;;21.20;99.90;;;;;;4980463;28;20062;-69
2022/07/26 11:52:14;;;;;;;6.00;1.33;;;21.20;99.90;;;;;;4966089;28;20125;-69
2022/07/26 11:54:46;;;;;;;6.10;1.33;;;21.10;99.90;;;;;;4964213;28;20042;-69
2022/07/26 11:57:12;;;;;;;11.68;1.50;;;21.00;99.90;;;;;;4963559;28;20545;-70
2022/07/26 11:59:38;;;;;;;6.97;1.30;;;21.00;99.90;;;;;;4982648;28;20054;-69
2022/07/26 12:02:08;;;;;;;5.82;1.25;;;21.00;99.90;;;;;;4965148;28;20046;-69
2022/07/26 12:04:42;;;;;;;11.02;1.50;;;21.10;99.90;;;;;;4996705;28;20046;-69
2022/07/26 12:07:10;;;;;;;8.52;1.20;;;21.20;99.90;;;;;;4981487;28;20325;-70
2022/07/26 12:09:50;;;;;;;7.05;1.33;;;21.30;99.90;;;;;;4965257;28;20111;-73
2022/07/26 12:12:27;;;;;;;7.90;1.30;;;21.40;99.90;;;;;;4981326;28;20041;-72
2022/07/26 12:15:06;;;;;;;8.50;1.40;;;21.60;99.90;;;;;;4980587;28;20054;-73
2022/07/26 12:17:33;;;;;;;7.45;1.30;;;21.60;99.90;;;;;;4980921;28;20065;-76
2022/07/26 12:20:16;;;;;;;7.63;1.38;;;21.60;99.90;;;;;;4980681;28;20072;-72
2022/07/26 12:22:59;;;;;;;4.65;1.35;;;21.50;99.90;;;;;;4981415;28;20824;-72
2022/07/26 12:25:28;;;;;;;6.60;1.30;;;21.40;99.90;;;;;;4996377;28;20042;-72
2022/07/26 12:27:55;;;;;;;7.97;1.30;;;21.30;99.90;;;;;;4981151;28;20053;-73
2022/07/26 12:30:21;;;;;;;9.40;1.55;;;21.30;99.90;;;;;;4981776;28;20125;-73
2022/07/26 12:32:50;;;;;;;5.63;1.30;;;21.20;99.90;;;;;;4979672;28;20107;-72
2022/07/26 12:35:26;;;;;;;11.15;1.75;;;21.10;99.90;;;;;;4962653;28;20723;-73
2022/07/26 12:37:52;;;;;;;10.65;1.33;;;21.10;99.90;;;;;;4980621;28;20111;-69
2022/07/26 12:40:29;;;;;;;6.80;1.42;;;21.30;99.90;;;;;;4996667;28;20042;-70
2022/07/26 12:43:00;;;;;;;8.68;1.70;;;21.40;99.90;;;;;;4997547;28;20086;-72
2022/07/26 12:45:31;;;;;;;9.57;1.77;;;21.60;99.90;;;;;;4980302;28;20042;-71
2022/07/26 12:48:01;;;;;;;3.83;1.10;;;21.40;99.10;;;;;;4964452;28;20133;-71
2022/07/26 12:50:30;;;;;;;9.88;2.08;;;21.10;99.50;;;;;;4996005;28;20050;-70